createdAt,value
2023-04-15T00:00:15.926Z,102671.28
2023-04-15T00:01:20.873Z,102671.38
2023-04-15T00:02:23.050Z,102672.22
2023-04-15T00:03:25.298Z,102668.78
2023-04-15T00:04:28.114Z,102658.50
2023-04-15T00:05:30.686Z,102633.84
2023-04-15T00:06:32.568Z,102674.28
2023-04-15T00:07:34.547Z,102678.88
2023-04-15T00:08:36.332Z,102668.38
2023-04-15T00:09:38.199Z,102670.94
2023-04-15T00:10:40.056Z,102672.78
2023-04-15T00:11:42.200Z,102673.75
2023-04-15T00:12:44.273Z,102669.22
2023-04-15T00:13:46.214Z,102672.88
2023-04-15T00:14:47.986Z,102668.38
2023-04-15T00:15:49.786Z,102668.47
2023-04-15T00:16:56.268Z,102670.31
2023-04-15T00:17:58.315Z,102658.31
2023-04-15T00:19:00.467Z,102670.31
2023-04-15T00:20:02.950Z,102669.56
2023-04-15T00:21:05.497Z,102656.59
2023-04-15T00:22:08.191Z,102671.38
2023-04-15T00:23:09.906Z,102672.25
2023-04-15T00:24:11.805Z,102668.81
2023-04-15T00:25:13.687Z,102668.81
2023-04-15T00:26:15.512Z,102667.09
2023-04-15T00:27:18.195Z,102663.09
2023-04-15T00:28:20.013Z,102671.59
2023-04-15T00:29:22.391Z,102669.03
2023-04-15T00:30:24.233Z,102669.25
2023-04-15T00:31:26.057Z,102665.59
2023-04-15T00:32:27.920Z,102668.28
2023-04-15T00:33:29.800Z,102668.28
2023-04-15T00:34:31.599Z,102670.09
2023-04-15T00:35:33.767Z,102666.56
2023-04-15T00:36:35.871Z,102672.75
2023-04-15T00:37:37.695Z,102672.84
2023-04-15T00:38:39.521Z,102670.16
2023-04-15T00:39:41.445Z,102660.41
2023-04-15T00:40:43.687Z,102672.09
2023-04-15T00:41:46.437Z,102665.25
2023-04-15T00:42:48.476Z,102669.41
2023-04-15T00:43:50.350Z,102666.00
2023-04-15T00:44:52.398Z,102666.88
2023-04-15T00:45:56.134Z,102653.13
2023-04-15T00:46:59.516Z,102667.84
2023-04-15T00:48:01.933Z,102646.50
2023-04-15T00:49:07.772Z,102666.13
2023-04-15T00:50:11.080Z,102667.91
2023-04-15T00:51:14.372Z,102661.72
2023-04-15T00:52:16.155Z,102660.84
2023-04-15T00:53:18.033Z,102662.56
2023-04-15T00:54:19.940Z,102665.38
2023-04-15T00:55:21.866Z,102668.13
2023-04-15T00:56:24.585Z,102662.97
2023-04-15T00:57:27.327Z,102657.63
2023-04-15T00:58:29.659Z,102664.69
2023-04-15T00:59:31.860Z,102662.34
2023-04-15T01:00:34.598Z,102676.28
2023-04-15T01:01:36.940Z,102664.69
2023-04-15T01:02:39.289Z,102662.16
2023-04-15T01:03:41.685Z,102669.22
2023-04-15T01:04:43.742Z,102661.28
2023-04-15T01:05:46.084Z,102670.28
2023-04-15T01:06:47.890Z,102659.13
2023-04-15T01:07:49.815Z,102659.44
2023-04-15T01:08:51.705Z,102684.63
2023-04-15T01:09:53.768Z,102678.53
2023-04-15T01:11:02.290Z,102682.06
2023-04-15T01:12:05.190Z,102681.88
2023-04-15T01:13:07.023Z,102679.28
2023-04-15T01:14:10.417Z,102678.53
2023-04-15T01:15:12.442Z,102676.72
2023-04-15T01:16:14.657Z,102670.91
2023-04-15T01:17:17.914Z,102678.66
2023-04-15T01:18:20.548Z,102677.78
2023-04-15T01:19:22.614Z,102674.25
2023-04-15T01:20:24.768Z,102679.59
2023-04-15T01:21:26.984Z,102681.41
2023-04-15T01:22:28.886Z,102679.69
2023-04-15T01:23:31.032Z,102676.25
2023-04-15T01:24:34.179Z,102684.19
2023-04-15T01:25:36.095Z,102677.09
2023-04-15T01:26:39.203Z,102678.06
2023-04-15T01:27:43.762Z,102677.97
2023-04-15T01:28:45.913Z,102665.22
2023-04-15T01:29:48.277Z,102685.25
2023-04-15T01:30:50.072Z,102673.66
2023-04-15T01:31:53.193Z,102682.66
2023-04-15T01:32:55.134Z,102674.97
2023-04-15T01:33:56.938Z,102676.69
2023-04-15T01:34:58.983Z,102679.25
2023-04-15T01:36:00.937Z,102668.66
2023-04-15T01:37:02.743Z,102677.44
2023-04-15T01:38:09.489Z,102674.84
2023-04-15T01:39:13.485Z,102672.06
2023-04-15T01:40:15.486Z,102645.66
2023-04-15T01:41:17.581Z,102668.09
2023-04-15T01:42:21.867Z,102683.00
2023-04-15T01:43:24.881Z,102682.13
2023-04-15T01:44:28.183Z,102682.03
2023-04-15T01:45:30.159Z,102679.44
2023-04-15T01:46:32.399Z,102684.06
2023-04-15T01:47:35.881Z,102675.81
2023-04-15T01:48:37.783Z,102679.56
2023-04-15T01:49:39.647Z,102677.94
2023-04-15T01:50:41.773Z,102685.00
2023-04-15T01:51:43.596Z,102682.47
2023-04-15T01:52:45.412Z,102677.09
2023-04-15T01:53:47.184Z,102678.06
2023-04-15T01:54:49.157Z,102675.38
2023-04-15T01:55:52.098Z,102680.00
2023-04-15T01:56:54.039Z,102660.84
2023-04-15T01:57:56.289Z,102681.78
2023-04-15T01:58:58.273Z,102674.16
2023-04-15T02:00:00.248Z,102675.59
2023-04-15T02:01:03.159Z,102674.06
2023-04-15T02:02:06.909Z,102666.03
2023-04-15T02:03:08.904Z,102677.41
2023-04-15T02:04:16.621Z,102675.69
2023-04-15T02:05:18.858Z,102674.84
2023-04-15T02:06:22.572Z,102676.56
2023-04-15T02:07:24.443Z,102671.53
2023-04-15T02:08:26.875Z,102670.63
2023-04-15T02:09:28.714Z,102680.28
2023-04-15T02:10:30.800Z,102680.28
2023-04-15T02:11:35.243Z,102676.72
2023-04-15T02:12:39.616Z,102684.75
2023-04-15T02:13:41.771Z,102680.38
2023-04-15T02:14:43.711Z,102669.19
2023-04-15T02:15:49.958Z,102675.09
2023-04-15T02:16:54.420Z,102674.94
2023-04-15T02:17:57.027Z,102674.16
2023-04-15T02:19:00.675Z,102684.94
2023-04-15T02:20:03.112Z,102667.56
2023-04-15T02:21:07.227Z,102676.91
2023-04-15T02:22:09.485Z,102678.28
2023-04-15T02:23:11.837Z,102687.63
2023-04-15T02:24:13.717Z,102681.50
2023-04-15T02:25:20.595Z,102684.19
2023-04-15T02:26:25.422Z,102688.59
2023-04-15T02:27:29.329Z,102683.22
2023-04-15T02:28:31.170Z,102683.22
2023-04-15T02:29:33.113Z,102680.66
2023-04-15T02:30:36.098Z,102692.22
2023-04-15T02:31:40.593Z,102683.44
2023-04-15T02:32:45.155Z,102685.16
2023-04-15T02:33:47.672Z,102689.66
2023-04-15T02:34:49.638Z,102689.66
2023-04-15T02:35:53.336Z,102688.78
2023-04-15T02:36:57.365Z,102690.72
2023-04-15T02:37:59.614Z,102687.81
2023-04-15T02:39:01.606Z,102695.00
2023-04-15T02:40:05.076Z,102697.78
2023-04-15T02:41:06.951Z,102684.81
2023-04-15T02:42:10.294Z,102688.03
2023-04-15T02:43:12.575Z,102684.50
2023-04-15T02:44:14.389Z,102690.72
2023-04-15T02:45:16.442Z,102693.50
2023-04-15T02:46:19.413Z,102687.28
2023-04-15T02:47:21.281Z,102694.47
2023-04-15T02:48:24.029Z,102698.84
2023-04-15T02:49:26.437Z,102701.63
2023-04-15T02:50:28.263Z,102697.22
2023-04-15T02:51:32.298Z,102696.47
2023-04-15T02:52:34.124Z,102681.69
2023-04-15T02:53:36.373Z,102687.03
2023-04-15T02:54:38.250Z,102697.22
2023-04-15T02:55:40.424Z,102696.47
2023-04-15T02:56:42.460Z,102659.66
2023-04-15T02:57:44.375Z,102703.53
2023-04-15T02:58:46.484Z,102702.69
2023-04-15T02:59:48.307Z,102693.91
2023-04-15T03:00:51.925Z,102702.69
2023-04-15T03:01:53.929Z,102699.16
2023-04-15T03:03:03.436Z,102703.75
2023-04-15T03:04:05.768Z,102686.16
2023-04-15T03:05:11.772Z,102699.28
2023-04-15T03:06:15.091Z,102703.66
2023-04-15T03:07:18.197Z,102684.94
2023-04-15T03:08:21.419Z,102694.97
2023-04-15T03:09:23.258Z,102705.59
2023-04-15T03:10:25.549Z,102694.41
2023-04-15T03:11:27.577Z,102692.78
2023-04-15T03:12:30.471Z,102703.88
2023-04-15T03:13:32.938Z,102703.97
2023-04-15T03:14:39.603Z,102701.19
2023-04-15T03:15:41.864Z,102708.47
2023-04-15T03:16:43.741Z,102706.72
2023-04-15T03:17:46.361Z,102711.16
2023-04-15T03:18:48.213Z,102711.22
2023-04-15T03:19:50.603Z,102684.72
2023-04-15T03:20:52.823Z,102698.25
2023-04-15T03:21:54.896Z,102709.50
2023-04-15T03:22:57.019Z,102705.00
2023-04-15T03:24:01.019Z,102711.22
2023-04-15T03:25:03.868Z,102713.03
2023-04-15T03:26:07.368Z,102710.34
2023-04-15T03:27:09.557Z,102714.88
2023-04-15T03:28:12.276Z,102708.84
2023-04-15T03:29:14.110Z,102711.63
2023-04-15T03:30:16.514Z,102712.28
2023-04-15T03:31:18.456Z,102706.06
2023-04-15T03:32:20.361Z,102716.78
2023-04-15T03:33:22.244Z,102708.84
2023-04-15T03:34:24.090Z,102708.84
2023-04-15T03:35:26.027Z,102686.44
2023-04-15T03:36:31.344Z,102708.84
2023-04-15T03:37:33.122Z,102709.72
2023-04-15T03:38:34.982Z,102715.06
2023-04-15T03:39:36.954Z,102711.50
2023-04-15T03:40:42.255Z,102711.63
2023-04-15T03:41:44.144Z,102712.41
2023-04-15T03:42:46.054Z,102709.91
2023-04-15T03:43:47.863Z,102714.19
2023-04-15T03:44:49.817Z,102711.50
2023-04-15T03:45:51.647Z,102714.19
2023-04-15T03:46:53.991Z,102715.16
2023-04-15T03:47:57.367Z,102700.38
2023-04-15T03:49:02.722Z,102710.56
2023-04-15T03:50:05.225Z,102712.41
2023-04-15T03:51:07.148Z,102719.56
2023-04-15T03:52:09.017Z,102726.63
2023-04-15T03:53:10.864Z,102717.84
2023-04-15T03:54:15.317Z,102721.47
2023-04-15T03:55:17.307Z,102724.91
2023-04-15T03:56:19.073Z,102705.94
2023-04-15T03:57:21.163Z,102712.03
2023-04-15T03:58:23.180Z,102713.75
2023-04-15T03:59:24.987Z,102713.75
2023-04-15T04:00:26.826Z,102725.03
2023-04-15T04:01:28.632Z,102733.06
2023-04-15T04:02:30.572Z,102729.41
2023-04-15T04:03:32.704Z,102730.38
2023-04-15T04:04:34.800Z,102711.16
2023-04-15T04:05:39.052Z,102727.69
2023-04-15T04:06:41.078Z,102729.63
2023-04-15T04:07:42.854Z,102733.06
2023-04-15T04:08:44.694Z,102731.22
2023-04-15T04:09:47.480Z,102728.66
2023-04-15T04:10:49.345Z,102730.38
2023-04-15T04:11:51.312Z,102720.81
2023-04-15T04:12:53.125Z,102725.88
2023-04-15T04:13:54.906Z,102732.19
2023-04-15T04:14:56.806Z,102727.69
2023-04-15T04:15:58.830Z,102733.06
2023-04-15T04:17:01.226Z,102733.91
2023-04-15T04:18:03.793Z,102734.00
2023-04-15T04:19:05.629Z,102739.16
2023-04-15T04:20:08.197Z,102711.56
2023-04-15T04:21:10.087Z,102737.31
2023-04-15T04:22:12.330Z,102727.13
2023-04-15T04:23:14.191Z,102737.31
2023-04-15T04:24:16.467Z,102743.56
2023-04-15T04:25:18.290Z,102738.97
2023-04-15T04:26:20.068Z,102747.00
2023-04-15T04:27:22.093Z,102747.94
2023-04-15T04:28:23.944Z,102719.94
2023-04-15T04:29:25.737Z,102745.28
2023-04-15T04:30:27.636Z,102744.31
2023-04-15T04:31:29.526Z,102738.97
2023-04-15T04:32:31.612Z,102744.50
2023-04-15T04:33:34.464Z,102743.34
2023-04-15T04:34:36.233Z,102747.19
2023-04-15T04:35:38.060Z,102724.47
2023-04-15T04:36:39.830Z,102754.91
2023-04-15T04:37:41.951Z,102748.72
2023-04-15T04:38:43.756Z,102746.88
2023-04-15T04:39:45.575Z,102745.06
2023-04-15T04:40:47.426Z,102732.94
2023-04-15T04:41:50.007Z,102748.63
2023-04-15T04:42:51.931Z,102745.06
2023-04-15T04:43:53.780Z,102756.75
2023-04-15T04:44:55.594Z,102755.78
2023-04-15T04:45:57.516Z,102752.22
2023-04-15T04:46:59.421Z,102756.66
2023-04-15T04:48:01.407Z,102749.56
2023-04-15T04:49:03.563Z,102744.59
2023-04-15T04:50:06.833Z,102748.63
2023-04-15T04:51:09.495Z,102745.34
2023-04-15T04:52:11.716Z,102752.16
2023-04-15T04:53:13.523Z,102752.16
2023-04-15T04:54:15.330Z,102752.16
2023-04-15T04:55:17.205Z,102754.81
2023-04-15T04:56:19.004Z,102759.22
2023-04-15T04:57:20.877Z,102756.53
2023-04-15T04:58:22.748Z,102750.34
2023-04-15T04:59:24.963Z,102749.38
2023-04-15T05:00:26.781Z,102755.59
2023-04-15T05:01:28.668Z,102754.63
2023-04-15T05:02:31.056Z,102748.50
2023-04-15T05:03:33.282Z,102746.59
2023-04-15T05:04:35.486Z,102754.63
2023-04-15T05:05:39.559Z,102752.81
2023-04-15T05:06:41.428Z,102755.38
2023-04-15T05:07:43.438Z,102752.69
2023-04-15T05:08:46.684Z,102758.94
2023-04-15T05:09:48.515Z,102746.38
2023-04-15T05:10:50.529Z,102751.19
2023-04-15T05:11:52.396Z,102751.75
2023-04-15T05:12:54.255Z,102754.41
2023-04-15T05:13:56.143Z,102753.47
2023-04-15T05:14:58.108Z,102755.19
2023-04-15T05:16:00.013Z,102742.09
2023-04-15T05:17:01.789Z,102757.84
2023-04-15T05:18:03.584Z,102759.56
2023-04-15T05:19:05.780Z,102758.59
2023-04-15T05:20:08.433Z,102752.41
2023-04-15T05:21:10.493Z,102754.13
2023-04-15T05:22:12.347Z,102756.88
2023-04-15T05:23:14.153Z,102758.59
2023-04-15T05:24:15.907Z,102756.13
2023-04-15T05:25:17.991Z,102757.66
2023-04-15T05:26:19.989Z,102761.19
2023-04-15T05:27:22.772Z,102755.84
2023-04-15T05:28:24.537Z,102742.75
2023-04-15T05:29:26.306Z,102765.59
2023-04-15T05:30:28.085Z,102754.13
2023-04-15T05:31:29.902Z,102758.41
2023-04-15T05:32:32.028Z,102754.88
2023-04-15T05:33:33.989Z,102726.63
2023-04-15T05:34:35.927Z,102757.56
2023-04-15T05:35:37.835Z,102748.56
2023-04-15T05:36:39.589Z,102752.09
2023-04-15T05:37:41.557Z,102750.28
2023-04-15T05:38:43.358Z,102736.44
2023-04-15T05:39:45.254Z,102753.16
2023-04-15T05:40:47.096Z,102756.50
2023-04-15T05:41:48.881Z,102761.97
2023-04-15T05:42:51.324Z,102752.09
2023-04-15T05:43:53.135Z,102714.31
2023-04-15T05:44:55.134Z,102752.84
2023-04-15T05:45:57.008Z,102742.53
2023-04-15T05:46:58.802Z,102753.72
2023-04-15T05:48:00.772Z,102751.03
2023-04-15T05:49:02.802Z,102752.00
2023-04-15T05:50:05.234Z,102749.22
2023-04-15T05:51:07.146Z,102753.63
2023-04-15T05:52:08.964Z,102756.31
2023-04-15T05:53:10.831Z,102728.59
2023-04-15T05:54:12.639Z,102742.53
2023-04-15T05:55:14.592Z,102749.16
2023-04-15T05:56:16.494Z,102750.97
2023-04-15T05:57:18.440Z,102735.47
2023-04-15T05:58:20.245Z,102748.28
2023-04-15T05:59:22.052Z,102752.69
2023-04-15T06:00:23.822Z,102758.91
2023-04-15T06:01:26.244Z,102762.53
2023-04-15T06:02:28.156Z,102752.69
2023-04-15T06:03:30.706Z,102758.03
2023-04-15T06:04:32.935Z,102765.09
2023-04-15T06:05:34.859Z,102758.91
2023-04-15T06:06:37.287Z,102763.38
2023-04-15T06:07:39.186Z,102765.09
2023-04-15T06:08:41.578Z,102763.22
2023-04-15T06:09:43.351Z,102762.25
2023-04-15T06:10:45.185Z,102765.78
2023-04-15T06:11:47.055Z,102752.69
2023-04-15T06:12:48.867Z,102770.09
2023-04-15T06:13:50.739Z,102766.34
2023-04-15T06:14:52.545Z,102766.25
2023-04-15T06:15:54.712Z,102773.13
2023-04-15T06:16:56.517Z,102772.91
2023-04-15T06:17:58.523Z,102772.78
2023-04-15T06:19:00.431Z,102775.25
2023-04-15T06:20:02.354Z,102763.91
2023-04-15T06:21:04.803Z,102769.91
2023-04-15T06:22:07.355Z,102781.75
2023-04-15T06:23:09.174Z,102779.16
2023-04-15T06:24:11.860Z,102785.81
2023-04-15T06:25:14.216Z,102782.94
2023-04-15T06:26:16.290Z,102778.25
2023-04-15T06:27:18.693Z,102777.28
2023-04-15T06:28:20.534Z,102783.94
2023-04-15T06:29:22.341Z,102782.88
2023-04-15T06:30:24.541Z,102788.03
2023-04-15T06:31:26.894Z,102785.03
2023-04-15T06:32:28.768Z,102790.19
2023-04-15T06:33:30.756Z,102783.75
2023-04-15T06:34:32.521Z,102785.28
2023-04-15T06:35:34.330Z,102779.06
2023-04-15T06:36:36.318Z,102788.50
2023-04-15T06:37:38.130Z,102769.19
2023-04-15T06:38:39.972Z,102795.16
2023-04-15T06:39:43.024Z,102786.34
2023-04-15T06:40:44.957Z,102782.06
2023-04-15T06:41:46.914Z,102799.19
2023-04-15T06:42:48.911Z,102795.81
2023-04-15T06:43:51.490Z,102804.22
2023-04-15T06:44:53.354Z,102803.16
2023-04-15T06:45:55.173Z,102797.66
2023-04-15T06:46:57.068Z,102795.31
2023-04-15T06:47:58.963Z,102796.06
2023-04-15T06:49:00.859Z,102802.72
2023-04-15T06:50:04.018Z,102803.47
2023-04-15T06:51:06.209Z,102806.91
2023-04-15T06:52:08.217Z,102799.75
2023-04-15T06:53:10.127Z,102806.69
2023-04-15T06:54:12.106Z,102801.31
2023-04-15T06:55:14.789Z,102805.72
2023-04-15T06:56:16.527Z,102808.19
2023-04-15T06:57:18.301Z,102801.03
2023-04-15T06:58:20.277Z,102807.22
2023-04-15T06:59:22.061Z,102805.28
2023-04-15T07:00:23.909Z,102805.28
2023-04-15T07:01:26.233Z,102808.84
2023-04-15T07:02:28.081Z,102811.41
2023-04-15T07:03:32.551Z,102812.28
2023-04-15T07:04:34.737Z,102806.78
2023-04-15T07:05:36.662Z,102812.16
2023-04-15T07:06:38.978Z,102812.06
2023-04-15T07:07:41.145Z,102811.19
2023-04-15T07:08:43.091Z,102814.63
2023-04-15T07:09:45.192Z,102818.19
2023-04-15T07:10:47.719Z,102813.66
2023-04-15T07:11:49.668Z,102815.38
2023-04-15T07:12:51.619Z,102816.25
2023-04-15T07:13:53.415Z,102813.66
2023-04-15T07:14:55.230Z,102811.19
2023-04-15T07:15:57.106Z,102784.47
2023-04-15T07:16:58.915Z,102805.00
2023-04-15T07:18:00.934Z,102820.56
2023-04-15T07:19:03.102Z,102813.34
2023-04-15T07:20:05.703Z,102815.06
2023-04-15T07:21:07.729Z,102806.19
2023-04-15T07:22:09.705Z,102807.88
2023-04-15T07:23:12.057Z,102808.72
2023-04-15T07:24:16.975Z,102810.56
2023-04-15T07:25:19.119Z,102809.47
2023-04-15T07:26:21.020Z,102814.75
2023-04-15T07:27:22.834Z,102813.03
2023-04-15T07:28:24.726Z,102801.56
2023-04-15T07:29:27.206Z,102799.28
2023-04-15T07:30:29.570Z,102812.91
2023-04-15T07:31:31.468Z,102812.81
2023-04-15T07:32:33.349Z,102812.81
2023-04-15T07:33:35.404Z,102797.16
2023-04-15T07:34:38.131Z,102803.38
2023-04-15T07:35:40.020Z,102807.47
2023-04-15T07:36:42.009Z,102810.13
2023-04-15T07:37:43.890Z,102817.22
2023-04-15T07:38:45.697Z,102815.38
2023-04-15T07:39:48.054Z,102815.38
2023-04-15T07:40:49.979Z,102816.25
2023-04-15T07:41:51.752Z,102814.53
2023-04-15T07:42:53.568Z,102816.25
2023-04-15T07:43:55.439Z,102817.97
2023-04-15T07:44:57.405Z,102813.56
2023-04-15T07:45:59.277Z,102817.97
2023-04-15T07:47:03.018Z,102789.84
2023-04-15T07:48:05.931Z,102823.34
2023-04-15T07:49:07.754Z,102814.31
2023-04-15T07:50:11.242Z,102819.69
2023-04-15T07:51:13.138Z,102810.22
2023-04-15T07:52:15.061Z,102816.13
2023-04-15T07:53:16.819Z,102817.97
2023-04-15T07:54:18.570Z,102817.97
2023-04-15T07:55:22.952Z,102807.69
2023-04-15T07:56:24.828Z,102825.06
2023-04-15T07:57:26.633Z,102820.66
2023-04-15T07:58:28.446Z,102818.19
2023-04-15T07:59:31.202Z,102827.00
2023-04-15T08:00:33.108Z,102814.00
2023-04-15T08:01:35.071Z,102811.31
2023-04-15T08:02:39.662Z,102819.91
2023-04-15T08:03:43.233Z,102824.19
2023-04-15T08:04:45.278Z,102821.63
2023-04-15T08:05:47.552Z,102820.66
2023-04-15T08:06:50.416Z,102822.47
2023-04-15T08:07:52.304Z,102833.19
2023-04-15T08:08:54.993Z,102828.81
2023-04-15T08:09:56.805Z,102825.28
2023-04-15T08:10:59.166Z,102825.50
2023-04-15T08:12:01.063Z,102841.38
2023-04-15T08:13:02.935Z,102810.00
2023-04-15T08:14:04.822Z,102824.41
2023-04-15T08:15:08.361Z,102828.94
2023-04-15T08:16:25.111Z,102831.50
2023-04-15T08:17:27.154Z,102830.44
2023-04-15T08:18:28.986Z,102821.63
2023-04-15T08:19:30.926Z,102828.94
2023-04-15T08:20:32.797Z,102834.16
2023-04-15T08:21:34.708Z,102823.78
2023-04-15T08:22:36.535Z,102816.25
2023-04-15T08:23:39.393Z,102833.41
2023-04-15T08:24:41.536Z,102829.91
2023-04-15T08:25:43.302Z,102823.56
2023-04-15T08:26:45.154Z,102826.34
2023-04-15T08:27:47.192Z,102825.72
2023-04-15T08:28:49.551Z,102832.59
2023-04-15T08:29:51.653Z,102829.91
2023-04-15T08:30:53.578Z,102837.06
2023-04-15T08:31:55.834Z,102832.59
2023-04-15T08:32:57.969Z,102820.56
2023-04-15T08:34:00.493Z,102830.00
2023-04-15T08:35:02.540Z,102826.69
2023-04-15T08:36:04.874Z,102840.63
2023-04-15T08:37:07.061Z,102837.19
2023-04-15T08:38:08.836Z,102849.66
2023-04-15T08:39:10.728Z,102840.72
2023-04-15T08:40:12.795Z,102848.91
2023-04-15T08:41:27.427Z,102840.63
2023-04-15T08:42:37.754Z,102839.66
2023-04-15T08:43:48.353Z,102836.22
2023-04-15T08:44:51.221Z,102837.81
2023-04-15T08:45:53.687Z,102829.38
2023-04-15T08:46:57.327Z,102830.22
2023-04-15T08:48:00.995Z,102837.06
2023-04-15T08:49:09.380Z,102828.72
2023-04-15T08:50:11.949Z,102842.44
2023-04-15T08:51:16.266Z,102840.72
2023-04-15T08:52:18.264Z,102844.50
2023-04-15T08:53:20.344Z,102849.75
2023-04-15T08:54:22.975Z,102840.84
2023-04-15T08:55:29.992Z,102836.84
2023-04-15T08:56:35.608Z,102843.41
2023-04-15T08:57:38.335Z,102838.03
2023-04-15T08:58:40.717Z,102853.31
2023-04-15T08:59:43.642Z,102840.84
2023-04-15T09:00:46.004Z,102850.72
2023-04-15T09:01:50.127Z,102851.59
2023-04-15T09:02:52.681Z,102828.47
2023-04-15T09:03:55.037Z,102855.97
2023-04-15T09:04:57.707Z,102845.66
2023-04-15T09:06:00.009Z,102843.09
2023-04-15T09:07:02.244Z,102840.50
2023-04-15T09:08:05.915Z,102849.13
2023-04-15T09:09:08.088Z,102855.09
2023-04-15T09:10:10.300Z,102853.31
2023-04-15T09:11:12.393Z,102850.63
2023-04-15T09:12:14.530Z,102857.78
2023-04-15T09:13:16.325Z,102854.50
2023-04-15T09:14:18.412Z,102852.94
2023-04-15T09:15:20.929Z,102849.97
2023-04-15T09:16:23.185Z,102864.03
2023-04-15T09:17:26.702Z,102870.38
2023-04-15T09:18:30.774Z,102865.00
2023-04-15T09:19:34.727Z,102871.22
2023-04-15T09:20:42.151Z,102857.25
2023-04-15T09:21:47.910Z,102861.66
2023-04-15T09:22:51.210Z,102870.16
2023-04-15T09:23:58.968Z,102860.91
2023-04-15T09:25:01.551Z,102872.09
2023-04-15T09:26:04.231Z,102867.78
2023-04-15T09:27:06.564Z,102873.06
2023-04-15T09:28:08.836Z,102858.31
2023-04-15T09:29:13.659Z,102875.75
2023-04-15T09:30:16.482Z,102862.72
2023-04-15T09:31:29.752Z,102869.50
2023-04-15T09:32:31.568Z,102872.84
2023-04-15T09:33:33.628Z,102880.97
2023-04-15T09:34:37.114Z,102876.59
2023-04-15T09:35:38.944Z,102867.13
2023-04-15T09:36:54.553Z,102858.44
2023-04-15T09:38:08.100Z,102879.81
2023-04-15T09:39:09.928Z,102867.78
2023-04-15T09:40:12.473Z,102882.59
2023-04-15T09:41:20.516Z,102881.84
2023-04-15T09:42:27.053Z,102884.31
2023-04-15T09:43:40.038Z,102882.41
2023-04-15T09:44:41.949Z,102875.19
2023-04-15T09:45:52.189Z,102881.50
2023-04-15T09:46:54.118Z,102879.59
2023-04-15T09:47:59.230Z,102880.69
2023-04-15T09:49:11.764Z,102878.75
2023-04-15T09:50:14.737Z,102863.06
2023-04-15T09:51:16.500Z,102875.09
2023-04-15T09:52:18.264Z,102879.59
2023-04-15T09:53:22.061Z,102877.03
2023-04-15T09:54:23.850Z,102865.75
2023-04-15T09:55:25.620Z,102867.13
2023-04-15T09:56:36.288Z,102868.00
2023-04-15T09:57:40.246Z,102872.19
2023-04-15T09:58:43.240Z,102876.59
2023-04-15T09:59:45.042Z,102868.63
2023-04-15T10:00:51.202Z,102857.28
2023-04-15T10:01:53.450Z,102867.03
2023-04-15T10:02:56.360Z,102866.69
2023-04-15T10:03:58.763Z,102870.25
2023-04-15T10:05:02.447Z,102860.47
2023-04-15T10:06:05.625Z,102864.00
2023-04-15T10:07:12.825Z,102867.56
2023-04-15T10:08:17.801Z,102864.88
2023-04-15T10:09:19.852Z,102853.63
2023-04-15T10:10:21.707Z,102867.44
2023-04-15T10:11:25.115Z,102864.75
2023-04-15T10:12:27.792Z,102862.06
2023-04-15T10:13:35.083Z,102855.88
2023-04-15T10:14:38.951Z,102854.91
2023-04-15T10:15:43.929Z,102856.63
2023-04-15T10:16:49.211Z,102840.19
2023-04-15T10:17:52.336Z,102844.91
2023-04-15T10:18:59.960Z,102849.53
2023-04-15T10:20:03.988Z,102849.31
2023-04-15T10:21:06.641Z,102856.41
2023-04-15T10:22:08.714Z,102855.66
2023-04-15T10:23:13.381Z,102850.28
2023-04-15T10:24:16.615Z,102848.56
2023-04-15T10:25:19.172Z,102835.34
2023-04-15T10:26:21.542Z,102842.22
2023-04-15T10:27:24.571Z,102838.78
2023-04-15T10:28:26.914Z,102838.78
2023-04-15T10:29:29.749Z,102847.59
2023-04-15T10:30:33.304Z,102837.06
2023-04-15T10:31:38.428Z,102839.53
2023-04-15T10:32:41.435Z,102841.25
2023-04-15T10:33:44.524Z,102835.88
2023-04-15T10:34:48.762Z,102825.59
2023-04-15T10:35:52.108Z,102843.94
2023-04-15T10:36:58.498Z,102843.94
2023-04-15T10:38:00.646Z,102848.25
2023-04-15T10:39:02.595Z,102846.53
2023-04-15T10:40:27.470Z,102847.06
2023-04-15T10:41:34.595Z,102845.66
2023-04-15T10:42:36.553Z,102850.59
2023-04-15T10:43:38.630Z,102846.31
2023-04-15T10:44:43.877Z,102852.53
2023-04-15T10:45:46.059Z,102847.16
2023-04-15T10:46:47.873Z,102841.47
2023-04-15T10:47:55.289Z,102849.97
2023-04-15T10:48:57.776Z,102852.53
2023-04-15T10:50:01.681Z,102853.50
2023-04-15T10:51:03.972Z,102852.44
2023-04-15T10:52:08.507Z,102851.69
2023-04-15T10:53:11.177Z,102856.94
2023-04-15T10:54:39.441Z,102852.53
2023-04-15T10:55:41.402Z,102850.16
2023-04-15T10:56:45.093Z,102851.25
2023-04-15T10:57:47.000Z,102841.03
2023-04-15T10:58:49.033Z,102854.03
2023-04-15T10:59:58.310Z,102848.66
2023-04-15T11:01:02.817Z,102850.38
2023-04-15T11:02:07.541Z,102853.06
2023-04-15T11:03:10.044Z,102844.16
2023-04-15T11:04:12.219Z,102851.13
2023-04-15T11:05:16.341Z,102850.38
2023-04-15T11:06:18.239Z,102837.28
2023-04-15T11:07:49.106Z,102848.88
2023-04-15T11:08:59.583Z,102847.00
2023-04-15T11:10:02.020Z,102835.97
2023-04-15T11:11:04.020Z,102844.78
2023-04-15T11:12:10.558Z,102832.53
2023-04-15T11:13:12.408Z,102847.25
2023-04-15T11:14:17.354Z,102844.69
2023-04-15T11:15:32.557Z,102844.56
2023-04-15T11:16:43.267Z,102849.72
2023-04-15T11:17:46.459Z,102844.34
2023-04-15T11:18:56.084Z,102842.63
2023-04-15T11:19:58.564Z,102830.59
2023-04-15T11:21:05.658Z,102853.50
2023-04-15T11:22:11.516Z,102840.81
2023-04-15T11:23:15.816Z,102844.34
2023-04-15T11:24:27.277Z,102838.03
2023-04-15T11:25:31.163Z,102842.47
2023-04-15T11:26:33.384Z,102833.94
2023-04-15T11:27:35.140Z,102833.06
2023-04-15T11:28:38.812Z,102831.34
2023-04-15T11:29:41.241Z,102843.41
2023-04-15T11:30:43.871Z,102832.53
2023-04-15T11:31:49.726Z,102842.53
2023-04-15T11:32:53.600Z,102837.09
2023-04-15T11:33:59.045Z,102837.16
2023-04-15T11:35:00.906Z,102825.00
2023-04-15T11:36:04.318Z,102843.31
2023-04-15T11:37:06.581Z,102838.97
2023-04-15T11:38:13.951Z,102838.03
2023-04-15T11:39:16.814Z,102837.09
2023-04-15T11:40:23.954Z,102835.34
2023-04-15T11:41:25.947Z,102837.94
2023-04-15T11:42:36.201Z,102832.66
2023-04-15T11:43:44.963Z,102833.31
2023-04-15T11:44:46.787Z,102840.53
2023-04-15T11:46:01.075Z,102834.28
2023-04-15T11:47:21.903Z,102829.97
2023-04-15T11:48:27.226Z,102840.31
2023-04-15T11:49:31.260Z,102835.91
2023-04-15T11:50:33.427Z,102836.97
2023-04-15T11:51:35.730Z,102837.94
2023-04-15T11:52:37.540Z,102840.63
2023-04-15T11:53:47.843Z,102842.47
2023-04-15T11:54:49.663Z,102827.47
2023-04-15T11:55:54.051Z,102843.41
2023-04-15T11:56:56.879Z,102837.09
2023-04-15T11:58:12.839Z,102838.81
2023-04-15T11:59:15.850Z,102843.09